Time;durP1;ratioP1;P1;durP2;ratioP2;P2;SDS_P1;SDS_P2;PMS_P1;PMS_P2;Temp;Humidity;BMP_temperature;BMP_pressure;BME280_temperature;BME280_humidity;BME280_pressure;Samples;Min_cycle;Max_cycle;Signal;HPM_P1;HPM_P2
2021/10/02 00:44:57;;;;;;;4.65;2.90;;;14.20;97.50;;;;;;5114915;28;20046;-81
2021/10/02 00:47:23;;;;;;;4.15;2.88;;;14.20;97.40;;;;;;5110273;28;20028;-81
2021/10/02 00:49:53;;;;;;;7.05;3.28;;;14.20;97.40;;;;;;5114017;28;20046;-84
2021/10/02 00:52:19;;;;;;;5.85;3.03;;;14.20;97.30;;;;;;5102794;28;20480;-81
2021/10/02 00:54:46;;;;;;;5.25;2.67;;;14.20;97.20;;;;;;5095098;28;20090;-81
2021/10/02 00:57:13;;;;;;;5.07;2.90;;;14.20;97.20;;;;;;5110958;28;20052;-81
2021/10/02 00:59:39;;;;;;;8.80;2.67;;;14.30;97.20;;;;;;5110546;28;20122;-81
2021/10/02 01:02:10;;;;;;;8.40;2.65;;;14.20;97.10;;;;;;5113123;28;20027;-81
2021/10/02 01:04:51;;;;;;;5.57;2.60;;;14.20;97.00;;;;;;5108181;28;20162;-80
2021/10/02 01:07:24;;;;;;;6.20;2.83;;;14.20;97.10;;;;;;5094351;28;20031;-81
2021/10/02 01:10:06;;;;;;;7.13;2.63;;;14.20;97.00;;;;;;5099526;28;20031;-87
2021/10/02 01:12:50;;;;;;;8.45;2.42;;;14.20;96.90;;;;;;5114332;28;20027;-81
2021/10/02 01:15:33;;;;;;;9.25;2.78;;;14.30;96.80;;;;;;5114350;28;20035;-81
2021/10/02 01:18:09;;;;;;;6.57;2.60;;;14.30;96.80;;;;;;5107720;28;20428;-81
2021/10/02 01:20:43;;;;;;;3.38;2.10;;;14.30;96.80;;;;;;5094097;28;20460;-80
2021/10/02 01:23:41;;;;;;;5.25;2.30;;;14.30;96.80;;;;;;5107099;28;20024;-80
2021/10/02 01:26:43;;;;;;;5.75;2.58;;;14.30;96.80;;;;;;5105688;28;20031;-81
2021/10/02 01:29:10;;;;;;;6.00;2.55;;;14.20;96.90;;;;;;5114418;28;20135;-81
2021/10/02 01:31:45;;;;;;;6.30;2.75;;;14.30;97.00;;;;;;5113687;28;20028;-80
2021/10/02 01:34:35;;;;;;;5.95;2.45;;;14.30;97.00;;;;;;5110227;28;20034;-81
2021/10/02 01:37:29;;;;;;;5.30;2.70;;;14.20;97.20;;;;;;5092970;28;20093;-81
2021/10/02 01:48:16;;;;;;;7.18;3.08;;;14.10;97.90;;;;;;5112005;28;20042;-81
2021/10/02 01:50:43;;;;;;;6.53;3.30;;;14.10;97.90;;;;;;5113189;28;20024;-80
2021/10/02 01:53:10;;;;;;;4.75;3.10;;;14.10;97.90;;;;;;5105554;28;20543;-81
2021/10/02 01:55:37;;;;;;;6.95;2.90;;;14.10;97.90;;;;;;5100971;28;20066;-80
2021/10/02 01:58:10;;;;;;;5.97;3.03;;;14.10;97.90;;;;;;5100286;28;20042;-80
2021/10/02 02:00:43;;;;;;;4.10;2.60;;;14.10;97.80;;;;;;5096736;28;20059;-81
2021/10/02 02:03:13;;;;;;;4.85;2.47;;;14.00;97.60;;;;;;5111763;28;20028;-81
2021/10/02 02:05:39;;;;;;;3.70;2.60;;;14.00;97.50;;;;;;5116013;28;20066;-81
2021/10/02 02:08:17;;;;;;;3.38;2.55;;;14.00;97.50;;;;;;5112184;28;20036;-81
2021/10/02 02:10:44;;;;;;;3.55;1.95;;;14.00;97.40;;;;;;5096804;28;20458;-80
2021/10/02 02:13:13;;;;;;;5.75;2.45;;;14.10;97.30;;;;;;5096150;28;20060;-81
2021/10/02 02:15:39;;;;;;;5.93;2.55;;;14.10;97.20;;;;;;5096784;28;20031;-81
2021/10/02 02:18:10;;;;;;;5.93;2.10;;;14.10;97.10;;;;;;5096199;28;20533;-81
2021/10/02 02:20:59;;;;;;;4.28;2.20;;;14.10;97.10;;;;;;5097758;28;20024;-81
2021/10/02 02:23:26;;;;;;;4.20;2.45;;;14.00;97.00;;;;;;5097184;28;20028;-81
2021/10/02 02:25:54;;;;;;;4.57;2.65;;;14.00;96.90;;;;;;5096431;28;20028;-81
2021/10/02 02:28:21;;;;;;;4.07;2.20;;;14.00;96.90;;;;;;5106020;28;20056;-79
2021/10/02 02:30:47;;;;;;;8.10;2.60;;;14.00;96.90;;;;;;5116552;28;20024;-81
2021/10/02 02:33:16;;;;;;;4.35;2.60;;;14.00;96.80;;;;;;5116980;28;20524;-81
2021/10/02 02:35:43;;;;;;;5.75;2.22;;;14.00;96.70;;;;;;5103049;28;20128;-81
2021/10/02 02:38:09;;;;;;;4.85;2.25;;;14.00;96.70;;;;;;5095654;28;20036;-81
2021/10/02 02:40:35;;;;;;;4.88;1.95;;;14.00;96.70;;;;;;5097662;28;20139;-80
2021/10/02 02:43:01;;;;;;;2.78;1.92;;;14.00;96.60;;;;;;5104311;28;20027;-81
2021/10/02 02:45:27;;;;;;;4.43;1.98;;;14.00;96.60;;;;;;5111595;28;20031;-81
2021/10/02 02:48:08;;;;;;;4.63;2.00;;;14.00;96.40;;;;;;5116184;28;20040;-81
2021/10/02 02:50:51;;;;;;;2.73;1.90;;;14.00;96.50;;;;;;5116518;28;20038;-81
2021/10/02 02:53:46;;;;;;;4.00;2.05;;;14.00;96.40;;;;;;5106634;28;20111;-82
2021/10/02 02:56:29;;;;;;;4.57;1.92;;;14.00;96.30;;;;;;5096233;28;20047;-81
2021/10/02 02:59:02;;;;;;;2.88;1.83;;;14.00;96.30;;;;;;5109437;28;20468;-80
2021/10/02 03:01:29;;;;;;;5.38;2.00;;;14.00;96.30;;;;;;5102234;28;20031;-81
2021/10/02 03:03:57;;;;;;;3.33;2.15;;;14.00;96.30;;;;;;5095639;28;20146;-82
2021/10/02 03:06:24;;;;;;;4.38;1.95;;;14.10;96.30;;;;;;5096920;28;20032;-81
2021/10/02 03:08:51;;;;;;;4.25;1.90;;;14.00;96.10;;;;;;5095551;28;20081;-81
2021/10/02 03:11:23;;;;;;;3.78;1.75;;;14.10;96.10;;;;;;5074924;28;20056;-80
2021/10/02 03:13:55;;;;;;;3.00;1.88;;;14.00;96.10;;;;;;5075105;28;20052;-81
2021/10/02 03:16:24;;;;;;;3.95;2.20;;;14.00;96.10;;;;;;5103205;28;20054;-81
2021/10/02 03:18:54;;;;;;;5.45;1.88;;;14.00;96.00;;;;;;5115451;28;20024;-80
2021/10/02 03:21:22;;;;;;;5.63;1.90;;;14.00;96.00;;;;;;5115348;28;20390;-80
2021/10/02 03:23:49;;;;;;;3.47;2.13;;;14.00;96.00;;;;;;5100279;28;20056;-81
2021/10/02 03:26:15;;;;;;;3.15;1.90;;;14.10;96.00;;;;;;5094579;28;20032;-81
2021/10/02 03:28:42;;;;;;;4.93;2.20;;;14.10;95.90;;;;;;5095969;28;20042;-81
2021/10/02 03:31:09;;;;;;;3.78;1.90;;;14.10;95.90;;;;;;5094430;28;20024;-80
2021/10/02 03:33:36;;;;;;;3.75;1.80;;;14.10;95.90;;;;;;5102478;28;20028;-81
2021/10/02 03:36:02;;;;;;;4.32;2.15;;;14.10;95.90;;;;;;5111824;28;20028;-81
2021/10/02 03:38:28;;;;;;;3.05;1.95;;;14.10;95.90;;;;;;5101198;28;20039;-81
2021/10/02 03:41:01;;;;;;;3.60;1.80;;;14.10;95.80;;;;;;5101694;28;20038;-81
2021/10/02 03:43:31;;;;;;;3.92;2.00;;;14.10;95.80;;;;;;5116303;28;20023;-81
2021/10/02 03:45:58;;;;;;;4.15;1.80;;;14.10;95.80;;;;;;5103370;28;20105;-80
2021/10/02 03:48:24;;;;;;;4.10;1.65;;;14.10;95.80;;;;;;5110875;28;20042;-81
2021/10/02 03:50:50;;;;;;;3.80;1.60;;;14.10;95.80;;;;;;5106128;28;20028;-81
2021/10/02 03:53:16;;;;;;;3.28;1.70;;;14.10;95.90;;;;;;5103477;28;20027;-81
2021/10/02 03:55:42;;;;;;;4.43;1.80;;;14.10;95.90;;;;;;5095349;28;20024;-81
2021/10/02 03:58:07;;;;;;;3.95;1.75;;;14.10;95.90;;;;;;5094325;28;20028;-80
2021/10/02 04:00:33;;;;;;;2.78;1.35;;;14.00;95.90;;;;;;5094780;28;20031;-80
2021/10/02 04:02:59;;;;;;;3.22;1.48;;;14.00;96.00;;;;;;5101004;28;20448;-81
2021/10/02 04:05:24;;;;;;;3.55;1.88;;;14.00;96.00;;;;;;5114101;28;20058;-81
2021/10/02 04:07:50;;;;;;;3.60;1.42;;;14.00;96.00;;;;;;5112738;28;20070;-81
2021/10/02 04:10:16;;;;;;;4.45;1.58;;;14.00;95.90;;;;;;5109310;28;20020;-80
2021/10/02 04:12:42;;;;;;;3.97;1.67;;;14.00;95.90;;;;;;5115796;28;20020;-80
2021/10/02 04:15:08;;;;;;;4.38;1.85;;;14.00;96.00;;;;;;5114957;28;20034;-81
2021/10/02 04:17:34;;;;;;;3.40;1.75;;;14.00;96.00;;;;;;5114838;28;20524;-81
2021/10/02 04:20:00;;;;;;;5.25;1.70;;;14.00;96.00;;;;;;5115702;28;20028;-82
2021/10/02 04:22:26;;;;;;;3.22;1.23;;;14.00;96.10;;;;;;5110768;28;20024;-81
2021/10/02 04:24:51;;;;;;;4.47;1.50;;;13.90;96.10;;;;;;5104067;28;20032;-81
2021/10/02 04:27:18;;;;;;;3.83;1.58;;;14.00;96.10;;;;;;5111238;28;20449;-81
2021/10/02 04:29:44;;;;;;;3.60;1.73;;;14.00;96.30;;;;;;5094474;28;20435;-81
2021/10/02 04:32:10;;;;;;;3.88;1.65;;;13.90;96.40;;;;;;5102450;28;20049;-81
2021/10/02 04:34:35;;;;;;;3.00;1.48;;;13.90;96.50;;;;;;5114354;28;20046;-81
2021/10/02 04:37:01;;;;;;;5.13;1.85;;;13.90;96.60;;;;;;5112927;28;20032;-86
2021/10/02 04:39:27;;;;;;;4.75;1.50;;;13.90;96.70;;;;;;5099445;28;20378;-82
2021/10/02 04:41:54;;;;;;;4.18;1.70;;;13.80;96.60;;;;;;5094740;28;20038;-79
2021/10/02 04:44:20;;;;;;;2.65;1.42;;;13.80;96.70;;;;;;5112756;28;20062;-81
2021/10/02 04:46:45;;;;;;;2.95;1.27;;;13.90;96.50;;;;;;5114734;28;20023;-81
2021/10/02 04:49:11;;;;;;;2.90;1.50;;;13.90;96.40;;;;;;5098801;28;20084;-81
2021/10/02 04:51:37;;;;;;;4.38;1.50;;;13.90;96.30;;;;;;5093551;28;20066;-81
2021/10/02 04:54:03;;;;;;;4.03;1.55;;;13.80;96.30;;;;;;5112337;28;20050;-87
2021/10/02 04:56:29;;;;;;;5.60;1.42;;;13.90;96.20;;;;;;5113720;28;20051;-80
2021/10/02 04:58:55;;;;;;;3.95;1.60;;;13.90;96.20;;;;;;5114239;28;20392;-81
2021/10/02 05:01:20;;;;;;;3.95;1.55;;;13.70;96.30;;;;;;5092575;28;20112;-81
2021/10/02 05:03:47;;;;;;;3.78;1.70;;;13.70;96.50;;;;;;5093092;28;20482;-80
2021/10/02 05:06:13;;;;;;;3.90;1.50;;;13.60;96.80;;;;;;5092731;28;20028;-81
2021/10/02 05:08:39;;;;;;;3.70;1.75;;;13.60;96.90;;;;;;5098382;28;20043;-81
2021/10/02 05:11:06;;;;;;;2.55;1.38;;;13.50;96.90;;;;;;5094181;28;20468;-89
2021/10/02 05:13:32;;;;;;;3.25;1.58;;;13.50;96.90;;;;;;5111112;28;20020;-81
2021/10/02 05:15:59;;;;;;;6.05;1.52;;;13.50;97.00;;;;;;5093318;28;20089;-81
2021/10/02 05:18:25;;;;;;;3.80;1.70;;;13.50;97.00;;;;;;5093835;28;20061;-81
2021/10/02 05:20:50;;;;;;;5.03;1.73;;;13.40;97.10;;;;;;5093125;28;20020;-81
2021/10/02 05:23:17;;;;;;;4.43;1.58;;;13.40;97.10;;;;;;5093953;28;20028;-82
2021/10/02 05:25:42;;;;;;;2.97;1.48;;;13.40;97.20;;;;;;5092896;28;20032;-81
2021/10/02 05:28:08;;;;;;;2.95;1.73;;;13.40;97.30;;;;;;5092337;28;20043;-82
2021/10/02 05:30:36;;;;;;;3.20;1.83;;;13.40;97.40;;;;;;5094452;28;20024;-82
2021/10/02 05:33:05;;;;;;;2.58;1.42;;;13.30;97.40;;;;;;5093044;28;20461;-82
2021/10/02 05:35:32;;;;;;;2.60;1.30;;;13.30;97.40;;;;;;5092736;28;20031;-81
2021/10/02 05:37:59;;;;;;;4.95;1.50;;;13.30;97.50;;;;;;5095027;28;20081;-82
2021/10/02 05:40:25;;;;;;;2.00;1.50;;;13.30;97.50;;;;;;5097377;28;20110;-82
2021/10/02 05:42:51;;;;;;;4.95;1.50;;;13.30;97.60;;;;;;5109917;28;20028;-82
2021/10/02 05:45:16;;;;;;;3.83;1.48;;;13.20;97.70;;;;;;5109568;28;20038;-80
2021/10/02 05:47:42;;;;;;;2.67;1.52;;;13.20;97.70;;;;;;5117232;28;20092;-80
2021/10/02 05:50:10;;;;;;;2.40;1.60;;;13.10;97.80;;;;;;5117025;28;20027;-88
2021/10/02 05:52:36;;;;;;;3.92;1.60;;;13.10;97.90;;;;;;5117633;28;20043;-81
2021/10/02 05:55:02;;;;;;;6.60;1.88;;;13.10;98.00;;;;;;5117538;28;20035;-82
2021/10/02 05:57:28;;;;;;;3.25;1.40;;;13.20;97.90;;;;;;5105133;28;20113;-82
2021/10/02 05:59:55;;;;;;;5.13;1.55;;;13.20;97.70;;;;;;5097189;28;20070;-81
2021/10/02 06:02:20;;;;;;;5.03;1.80;;;13.20;97.60;;;;;;5097378;28;20061;-82
2021/10/02 06:04:46;;;;;;;4.05;1.60;;;13.30;97.50;;;;;;5097025;28;20460;-82
2021/10/02 06:07:12;;;;;;;3.97;1.60;;;13.30;97.50;;;;;;5097364;28;20111;-82
2021/10/02 06:09:37;;;;;;;3.30;1.55;;;13.30;97.50;;;;;;5096883;28;20526;-81
2021/10/02 06:12:03;;;;;;;5.90;1.65;;;13.30;97.70;;;;;;5096986;28;20035;-81
2021/10/02 06:14:29;;;;;;;4.28;1.85;;;13.30;97.50;;;;;;5097791;28;20079;-81
2021/10/02 06:16:54;;;;;;;3.55;1.95;;;13.20;97.60;;;;;;5096335;28;20028;-81
2021/10/02 06:19:20;;;;;;;2.45;1.63;;;13.10;97.70;;;;;;5096307;28;20035;-82
2021/10/02 06:21:46;;;;;;;3.42;1.80;;;13.10;97.80;;;;;;5096092;28;20489;-82
2021/10/02 06:24:13;;;;;;;4.95;1.70;;;13.20;98.20;;;;;;5095619;28;20035;-90
2021/10/02 06:26:39;;;;;;;3.88;1.73;;;13.20;98.00;;;;;;5096362;28;20024;-82
2021/10/02 06:29:09;;;;;;;1.45;1.33;;;13.10;97.90;;;;;;5096537;28;20036;-82
2021/10/02 06:31:36;;;;;;;4.13;1.52;;;13.10;98.00;;;;;;5096160;28;20108;-82
2021/10/02 06:34:02;;;;;;;3.40;1.45;;;13.10;98.00;;;;;;5104667;28;20028;-82
2021/10/02 06:36:28;;;;;;;3.38;1.63;;;13.10;98.10;;;;;;5096878;28;20032;-81
2021/10/02 06:38:55;;;;;;;1.75;1.30;;;13.10;98.20;;;;;;5097164;28;20024;-81
2021/10/02 06:41:21;;;;;;;4.88;1.67;;;13.10;98.10;;;;;;5095168;28;20028;-82
2021/10/02 06:43:47;;;;;;;4.50;1.73;;;13.20;98.10;;;;;;5097133;28;20105;-81
2021/10/02 06:46:13;;;;;;;4.13;1.95;;;13.10;98.20;;;;;;5112612;28;20396;-88
2021/10/02 06:48:38;;;;;;;2.03;1.63;;;13.20;98.40;;;;;;5096937;28;20020;-82
2021/10/02 06:51:04;;;;;;;3.45;1.60;;;13.20;98.30;;;;;;5095264;28;20119;-82
2021/10/02 06:53:30;;;;;;;4.60;1.65;;;13.10;98.40;;;;;;5095426;28;20082;-82
2021/10/02 06:55:55;;;;;;;4.32;1.60;;;13.00;98.30;;;;;;5098782;28;20489;-82
2021/10/02 06:58:21;;;;;;;3.20;1.52;;;13.10;98.30;;;;;;5115549;28;20123;-82
2021/10/02 07:00:47;;;;;;;3.25;1.67;;;13.10;98.20;;;;;;5116439;28;20483;-82
2021/10/02 07:03:14;;;;;;;2.17;1.38;;;13.10;98.20;;;;;;5117019;28;20024;-85
2021/10/02 07:05:39;;;;;;;3.95;1.38;;;13.20;98.20;;;;;;5115544;28;20039;-83
2021/10/02 07:08:05;;;;;;;7.03;1.70;;;13.10;98.20;;;;;;5116306;28;20389;-83
2021/10/02 07:10:31;;;;;;;2.42;1.50;;;13.10;98.20;;;;;;5114202;28;20517;-84
2021/10/02 07:12:57;;;;;;;3.10;1.70;;;13.10;98.00;;;;;;5096515;28;20016;-83
2021/10/02 07:15:22;;;;;;;2.80;1.70;;;13.20;98.00;;;;;;5095214;28;20089;-83
2021/10/02 07:17:48;;;;;;;4.63;1.83;;;13.20;98.00;;;;;;5113107;28;20028;-83
2021/10/02 07:20:14;;;;;;;3.20;1.70;;;13.20;98.00;;;;;;5099979;28;20487;-86
2021/10/02 07:22:41;;;;;;;4.28;1.67;;;13.20;98.00;;;;;;5114905;28;20028;-83
2021/10/02 07:25:10;;;;;;;5.07;2.10;;;13.30;97.90;;;;;;5100674;28;20063;-84
2021/10/02 07:27:36;;;;;;;5.18;1.70;;;13.30;97.90;;;;;;5099229;28;20035;-83
2021/10/02 07:30:04;;;;;;;3.33;1.75;;;13.30;97.90;;;;;;5095389;28;20038;-83
2021/10/02 07:32:33;;;;;;;3.05;1.88;;;13.40;97.90;;;;;;5094893;28;20024;-82
2021/10/02 07:34:58;;;;;;;3.75;2.15;;;13.40;98.00;;;;;;5094440;28;20097;-84
2021/10/02 07:37:24;;;;;;;3.03;1.80;;;13.50;98.00;;;;;;5094384;28;20411;-84
2021/10/02 07:39:50;;;;;;;4.85;2.25;;;13.50;97.90;;;;;;5094624;28;20024;-83
2021/10/02 07:42:18;;;;;;;6.57;2.33;;;13.60;97.90;;;;;;5093871;28;20074;-84
2021/10/02 07:44:48;;;;;;;5.47;2.55;;;13.70;97.90;;;;;;5094398;28;20154;-82
2021/10/02 07:47:15;;;;;;;3.92;2.10;;;13.70;97.70;;;;;;5095156;28;20023;-84
2021/10/02 07:49:42;;;;;;;5.47;2.20;;;13.80;97.70;;;;;;5095575;28;20056;-82
2021/10/02 07:52:07;;;;;;;5.43;2.22;;;13.80;97.50;;;;;;5094591;28;20121;-83
2021/10/02 07:54:33;;;;;;;5.57;1.98;;;13.80;97.50;;;;;;5094988;28;20404;-83
2021/10/02 07:57:00;;;;;;;4.40;1.90;;;13.90;97.50;;;;;;5094078;28;21166;-83
2021/10/02 07:59:27;;;;;;;4.80;2.08;;;13.90;97.40;;;;;;5094415;28;20031;-83
2021/10/02 08:01:53;;;;;;;4.20;2.03;;;14.00;97.30;;;;;;5095359;28;20561;-83
2021/10/02 08:04:19;;;;;;;12.45;3.55;;;14.10;97.60;;;;;;5094404;28;20031;-82
2021/10/02 08:06:47;;;;;;;7.50;2.97;;;14.20;96.70;;;;;;5094983;28;20063;-82
2021/10/02 08:09:13;;;;;;;6.63;2.83;;;14.20;96.90;;;;;;5094012;28;20039;-81
2021/10/02 08:11:39;;;;;;;4.82;2.28;;;14.30;96.80;;;;;;5093789;28;20484;-81
2021/10/02 08:14:06;;;;;;;8.32;2.58;;;14.40;97.00;;;;;;5129810;27;20044;-82
2021/10/02 08:16:33;;;;;;;6.22;3.00;;;14.50;96.90;;;;;;5102447;28;20059;-81
2021/10/02 08:19:00;;;;;;;9.00;3.42;;;14.50;96.80;;;;;;5098310;28;20027;-82
2021/10/02 08:21:27;;;;;;;6.38;3.42;;;14.60;96.40;;;;;;5106648;28;20028;-83
2021/10/02 08:23:53;;;;;;;8.70;4.80;;;14.70;96.10;;;;;;5094214;28;20477;-82
2021/10/02 08:26:20;;;;;;;8.90;4.75;;;14.80;95.90;;;;;;5107133;28;20066;-91
2021/10/02 08:28:51;;;;;;;5.75;3.47;;;14.80;95.90;;;;;;5105844;28;20020;-81
2021/10/02 08:31:21;;;;;;;11.55;3.22;;;15.00;95.60;;;;;;5113790;28;20027;-82
2021/10/02 08:33:48;;;;;;;5.88;3.13;;;15.00;95.50;;;;;;5113530;28;20038;-81
2021/10/02 08:36:14;;;;;;;5.90;3.00;;;15.10;95.70;;;;;;5102691;28;20023;-82
2021/10/02 08:38:40;;;;;;;5.72;2.53;;;15.10;95.70;;;;;;5106772;28;20258;-80
2021/10/02 08:41:07;;;;;;;7.57;3.15;;;15.20;95.50;;;;;;5098026;28;20461;-80
2021/10/02 08:43:34;;;;;;;5.25;2.95;;;15.20;95.00;;;;;;5100198;28;20027;-82
2021/10/02 08:46:01;;;;;;;6.72;2.60;;;15.30;95.10;;;;;;5104228;28;20036;-83
2021/10/02 08:48:28;;;;;;;5.60;2.55;;;15.20;95.40;;;;;;5098118;28;20142;-84
2021/10/02 08:50:56;;;;;;;4.85;2.58;;;15.30;95.20;;;;;;5106093;28;20032;-82
2021/10/02 08:53:27;;;;;;;5.45;2.25;;;15.40;94.80;;;;;;5101847;28;20027;-84
2021/10/02 08:55:54;;;;;;;3.80;2.35;;;15.50;94.00;;;;;;5106129;28;20066;-80
2021/10/02 08:58:20;;;;;;;4.70;2.35;;;15.50;93.80;;;;;;5112314;28;20031;-80
2021/10/02 09:00:46;;;;;;;5.75;2.38;;;15.60;93.40;;;;;;5113637;28;20066;-79
2021/10/02 09:03:11;;;;;;;5.50;2.45;;;15.80;93.40;;;;;;5115271;28;20020;-80
2021/10/02 09:05:37;;;;;;;4.68;2.10;;;15.80;93.30;;;;;;5113587;28;20197;-83
2021/10/02 09:08:04;;;;;;;4.65;2.30;;;15.90;93.10;;;;;;5113699;28;20120;-82
2021/10/02 09:10:32;;;;;;;5.07;2.15;;;16.00;93.20;;;;;;5113157;28;20028;-83
2021/10/02 09:12:58;;;;;;;6.38;2.40;;;15.90;93.50;;;;;;5114615;27;20035;-81
2021/10/02 09:15:24;;;;;;;5.90;2.10;;;16.00;93.40;;;;;;5113434;28;20023;-83
2021/10/02 09:17:51;;;;;;;2.92;1.95;;;16.00;93.30;;;;;;5113473;28;20038;-82
2021/10/02 09:20:17;;;;;;;4.22;2.20;;;16.10;92.90;;;;;;5113711;28;20030;-82
2021/10/02 09:23:04;;;;;;;5.55;2.40;;;16.30;92.60;;;;;;5114268;28;20472;-80
2021/10/02 09:25:33;;;;;;;4.40;1.92;;;16.30;92.70;;;;;;5114208;28;20064;-79
2021/10/02 09:28:10;;;;;;;4.03;2.33;;;16.40;92.50;;;;;;5113353;28;20110;-81
2021/10/02 09:30:39;;;;;;;5.53;1.90;;;16.50;92.60;;;;;;5114016;28;20031;-81
2021/10/02 09:33:15;;;;;;;4.30;2.05;;;16.60;91.90;;;;;;5114652;28;20028;-81
2021/10/02 09:35:42;;;;;;;3.83;2.08;;;16.70;91.40;;;;;;5113889;28;20065;-80
2021/10/02 09:38:16;;;;;;;3.35;1.85;;;16.80;91.40;;;;;;5113380;28;20115;-80
2021/10/02 09:40:52;;;;;;;4.55;2.00;;;16.90;91.70;;;;;;5114155;28;20023;-80
2021/10/02 09:43:18;;;;;;;4.13;2.05;;;16.90;91.60;;;;;;5113627;28;20023;-80
2021/10/02 09:45:46;;;;;;;2.95;2.05;;;17.00;91.20;;;;;;5112716;28;20026;-81
2021/10/02 09:48:14;;;;;;;4.53;1.80;;;17.00;90.70;;;;;;5113142;28;20035;-81
2021/10/02 09:50:44;;;;;;;5.35;1.70;;;17.10;91.00;;;;;;5112721;28;20080;-80
2021/10/02 09:53:12;;;;;;;5.15;1.73;;;17.20;90.80;;;;;;5113443;28;20076;-80
2021/10/02 09:55:44;;;;;;;4.95;2.22;;;17.30;90.30;;;;;;5112612;28;20074;-81
2021/10/02 09:58:15;;;;;;;3.05;1.63;;;17.50;89.40;;;;;;5113525;28;20031;-81
2021/10/02 10:00:48;;;;;;;3.20;1.50;;;17.40;90.10;;;;;;5113031;28;20034;-81
2021/10/02 10:03:18;;;;;;;3.67;1.60;;;17.60;88.00;;;;;;5114012;28;20118;-80
2021/10/02 10:05:46;;;;;;;4.50;1.52;;;17.70;87.10;;;;;;5112595;28;20028;-80
2021/10/02 10:08:18;;;;;;;2.97;1.35;;;17.80;86.00;;;;;;5113398;28;20023;-79
2021/10/02 10:10:43;;;;;;;2.95;1.42;;;17.90;87.30;;;;;;5112869;28;20023;-80
2021/10/02 10:13:15;;;;;;;4.70;1.58;;;18.00;86.60;;;;;;5113103;28;20046;-81
2021/10/02 10:15:47;;;;;;;4.32;1.50;;;18.10;87.00;;;;;;5113675;28;20106;-81
2021/10/02 10:18:16;;;;;;;2.53;1.23;;;18.10;86.50;;;;;;5113154;28;20118;-80
2021/10/02 10:20:50;;;;;;;2.70;1.33;;;18.20;84.90;;;;;;5112421;28;20030;-80
2021/10/02 10:23:33;;;;;;;3.53;1.20;;;18.30;84.00;;;;;;5113119;28;20387;-81
2021/10/02 10:26:03;;;;;;;2.85;1.40;;;18.40;81.50;;;;;;5114638;28;20020;-80
2021/10/02 10:28:31;;;;;;;2.80;1.17;;;18.50;82.40;;;;;;5116405;28;20118;-80
2021/10/02 10:31:19;;;;;;;2.50;1.20;;;18.60;81.90;;;;;;5116819;28;20036;-80
2021/10/02 10:33:50;;;;;;;2.85;1.15;;;18.70;79.00;;;;;;5117162;28;20026;-80
2021/10/02 10:36:18;;;;;;;2.53;1.33;;;18.80;79.70;;;;;;5116867;28;20122;-79
2021/10/02 10:38:46;;;;;;;1.77;0.90;;;18.90;79.60;;;;;;5117227;28;20035;-80
2021/10/02 10:41:16;;;;;;;2.88;1.35;;;18.90;78.50;;;;;;5116782;28;20024;-80
2021/10/02 10:43:43;;;;;;;1.50;0.80;;;19.00;78.00;;;;;;5117072;28;20034;-81
2021/10/02 10:46:11;;;;;;;5.53;1.25;;;19.10;77.60;;;;;;5117509;28;20027;-79
2021/10/02 10:48:37;;;;;;;4.70;1.33;;;19.10;77.60;;;;;;5115838;28;20027;-81
2021/10/02 10:51:06;;;;;;;2.17;1.10;;;19.10;78.10;;;;;;5116260;28;20036;-81
2021/10/02 10:53:40;;;;;;;2.97;0.95;;;19.20;76.10;;;;;;5116882;28;20023;-81
2021/10/02 10:56:08;;;;;;;4.80;1.10;;;19.10;76.70;;;;;;5115751;28;20039;-80
2021/10/02 10:58:34;;;;;;;2.35;1.05;;;19.20;76.30;;;;;;5116348;27;20468;-81
2021/10/02 11:01:03;;;;;;;1.90;0.95;;;19.20;75.60;;;;;;5116390;28;20027;-80
2021/10/02 11:03:40;;;;;;;2.67;1.40;;;19.20;74.80;;;;;;5116945;28;20073;-81
2021/10/02 11:06:09;;;;;;;3.42;1.10;;;19.30;74.60;;;;;;5117131;28;20112;-81
2021/10/02 11:08:57;;;;;;;2.42;1.65;;;19.30;76.00;;;;;;5116489;28;20112;-81
2021/10/02 11:11:54;;;;;;;2.85;1.23;;;19.30;74.80;;;;;;5115968;28;20027;-80
2021/10/02 11:14:45;;;;;;;3.10;1.00;;;19.50;72.90;;;;;;5116906;27;20448;-80
2021/10/02 11:17:11;;;;;;;2.97;1.50;;;19.60;71.70;;;;;;5115840;28;20074;-80
2021/10/02 11:19:44;;;;;;;3.63;1.15;;;19.60;71.70;;;;;;5115387;28;20031;-81
2021/10/02 11:23:00;;;;;;;3.08;1.67;;;19.70;71.80;;;;;;5116031;28;20024;-81
2021/10/02 11:25:26;;;;;;;2.78;1.38;;;19.70;70.90;;;;;;5116688;28;20055;-88
2021/10/02 11:27:52;;;;;;;3.00;1.20;;;19.80;72.00;;;;;;5115726;28;20031;-81
2021/10/02 11:30:20;;;;;;;2.60;1.45;;;19.90;72.60;;;;;;5116525;28;20028;-81
2021/10/02 11:32:47;;;;;;;2.78;1.48;;;20.00;72.90;;;;;;5116097;28;20027;-81
2021/10/02 11:35:14;;;;;;;4.32;1.40;;;20.00;72.60;;;;;;5115451;28;20221;-81
2021/10/02 11:37:43;;;;;;;3.97;1.20;;;20.00;71.80;;;;;;5113840;28;20024;-81
2021/10/02 11:40:46;;;;;;;2.13;1.20;;;20.10;71.00;;;;;;5116237;28;20052;-80
2021/10/02 11:43:15;;;;;;;1.80;1.10;;;20.20;70.30;;;;;;5037027;28;20028;-80
2021/10/02 11:45:44;;;;;;;2.65;1.58;;;20.20;70.60;;;;;;5104758;28;20027;-81
2021/10/02 11:48:14;;;;;;;2.25;1.13;;;20.20;70.20;;;;;;5114731;28;20031;-80
2021/10/02 11:50:41;;;;;;;1.50;1.00;;;20.30;71.00;;;;;;5114646;28;20030;-80
2021/10/02 11:53:07;;;;;;;1.42;1.08;;;20.50;71.20;;;;;;5115610;28;20020;-81
2021/10/02 11:55:32;;;;;;;4.00;1.25;;;20.60;70.10;;;;;;5114195;28;20464;-81
2021/10/02 11:58:07;;;;;;;1.65;1.10;;;20.70;67.70;;;;;;5116101;28;20468;-82
2021/10/02 12:00:55;;;;;;;3.00;1.17;;;20.80;66.20;;;;;;5114358;28;20024;-81
2021/10/02 12:03:31;;;;;;;2.70;1.27;;;20.90;66.20;;;;;;5116131;28;20019;-80
2021/10/02 12:05:59;;;;;;;4.28;1.20;;;20.90;67.40;;;;;;5116364;28;20032;-81
2021/10/02 12:08:26;;;;;;;3.40;1.50;;;20.90;68.40;;;;;;5116607;28;20122;-81
2021/10/02 12:10:51;;;;;;;2.55;1.30;;;21.00;67.70;;;;;;5114071;28;20031;-81
2021/10/02 12:13:22;;;;;;;1.50;1.20;;;21.10;67.20;;;;;;5115187;28;20054;-81
2021/10/02 12:15:48;;;;;;;1.73;1.40;;;21.20;66.20;;;;;;5114021;28;20160;-81
2021/10/02 12:18:16;;;;;;;2.08;1.40;;;21.10;64.00;;;;;;5114598;28;20031;-83
2021/10/02 12:20:43;;;;;;;2.05;1.40;;;21.20;64.20;;;;;;5115133;28;20164;-81
2021/10/02 12:23:10;;;;;;;3.92;1.20;;;21.20;63.10;;;;;;5114272;28;20030;-81
2021/10/02 12:25:36;;;;;;;2.22;1.20;;;21.20;62.10;;;;;;5114016;28;20027;-82
2021/10/02 12:28:03;;;;;;;2.40;1.30;;;21.40;62.10;;;;;;5114144;28;20024;-81
2021/10/02 12:30:29;;;;;;;2.33;1.30;;;21.70;61.80;;;;;;5115338;28;20038;-81
2021/10/02 12:32:57;;;;;;;2.15;1.27;;;22.00;61.80;;;;;;5114208;28;20039;-81
2021/10/02 12:35:23;;;;;;;2.75;1.38;;;22.00;60.00;;;;;;5114137;28;20480;-81
2021/10/02 12:37:51;;;;;;;3.22;1.50;;;22.10;59.60;;;;;;5114828;28;20102;-81
2021/10/02 12:40:18;;;;;;;2.90;1.60;;;22.20;60.30;;;;;;5114117;28;20027;-81
2021/10/02 12:42:46;;;;;;;2.08;1.20;;;22.50;59.60;;;;;;5113614;28;20031;-80
2021/10/02 12:45:19;;;;;;;2.90;1.25;;;22.70;58.60;;;;;;5114061;28;20028;-81
2021/10/02 12:47:59;;;;;;;1.80;1.05;;;22.90;54.00;;;;;;5114665;28;20027;-81
2021/10/02 12:50:33;;;;;;;1.55;0.95;;;23.30;54.60;;;;;;5114590;28;20023;-81
2021/10/02 12:52:58;;;;;;;3.60;1.38;;;23.80;53.30;;;;;;5114262;28;20081;-80
2021/10/02 12:55:25;;;;;;;2.85;1.10;;;24.20;52.80;;;;;;5114095;28;20460;-80
2021/10/02 12:57:51;;;;;;;1.90;1.10;;;24.40;51.10;;;;;;5113661;28;20058;-79
2021/10/02 13:00:18;;;;;;;2.00;1.17;;;24.70;50.70;;;;;;5113982;28;20028;-80
2021/10/02 13:02:54;;;;;;;1.58;1.10;;;24.70;49.80;;;;;;5113569;28;20059;-79
2021/10/02 13:05:28;;;;;;;1.77;1.05;;;24.80;49.50;;;;;;5114004;28;20455;-79
2021/10/02 13:07:59;;;;;;;2.67;1.05;;;25.00;49.40;;;;;;5114133;28;20035;-79
2021/10/02 13:10:28;;;;;;;2.22;1.30;;;25.30;49.70;;;;;;5113738;28;20084;-79
2021/10/02 13:12:55;;;;;;;3.08;1.10;;;25.40;48.60;;;;;;5113508;28;20137;-79
2021/10/02 13:15:24;;;;;;;2.38;1.27;;;25.70;48.30;;;;;;5111408;28;20032;-80
2021/10/02 13:18:13;;;;;;;1.77;1.23;;;25.70;48.10;;;;;;5113547;28;20443;-81
2021/10/02 13:20:42;;;;;;;3.42;1.40;;;25.80;47.70;;;;;;5113812;28;20072;-80
2021/10/02 13:23:12;;;;;;;2.20;1.00;;;26.00;48.20;;;;;;5113702;28;20028;-81
2021/10/02 13:25:50;;;;;;;3.67;1.40;;;25.80;48.40;;;;;;5113608;28;20024;-79
2021/10/02 13:28:24;;;;;;;2.45;1.25;;;26.10;47.50;;;;;;5114695;28;20027;-80
2021/10/02 13:30:51;;;;;;;2.00;1.25;;;26.10;47.20;;;;;;5104433;28;20028;-80
2021/10/02 13:33:17;;;;;;;1.70;1.20;;;26.30;47.80;;;;;;5098075;28;20024;-80
2021/10/02 13:35:55;;;;;;;1.70;1.00;;;26.50;46.90;;;;;;5093968;28;20056;-80
2021/10/02 13:38:39;;;;;;;4.72;1.10;;;26.70;46.30;;;;;;5103941;28;20042;-80
2021/10/02 13:41:13;;;;;;;4.22;1.10;;;26.40;46.30;;;;;;5094421;28;20028;-81
2021/10/02 13:44:01;;;;;;;4.10;1.08;;;26.30;46.80;;;;;;5092938;28;20025;-82
2021/10/02 13:46:33;;;;;;;2.00;1.20;;;26.30;46.30;;;;;;5092692;28;20048;-80
2021/10/02 13:49:00;;;;;;;2.47;1.50;;;26.20;47.10;;;;;;5093375;28;20071;-80
2021/10/02 13:51:27;;;;;;;1.40;1.08;;;26.20;47.50;;;;;;5093834;28;20423;-81